Time;durP1;ratioP1;P1;durP2;ratioP2;P2;SDS_P1;SDS_P2;PMS_P1;PMS_P2;Temp;Humidity;BMP_temperature;BMP_pressure;BME280_temperature;BME280_humidity;BME280_pressure;Samples;Min_cycle;Max_cycle;Signal;HPM_P1;HPM_P2
2022/12/04 00:01:17;;;;;;;2.60;1.63;;;1.80;99.90;;;;;;5008823;28;20445;-79
2022/12/04 00:03:44;;;;;;;2.10;1.70;;;1.70;99.90;;;;;;4999797;28;20983;-80
2022/12/04 00:06:18;;;;;;;2.58;1.92;;;1.80;99.90;;;;;;4995872;28;20433;-79
2022/12/04 00:08:46;;;;;;;4.88;1.83;;;1.70;99.90;;;;;;5012340;28;20436;-79
2022/12/04 00:11:16;;;;;;;2.92;2.50;;;1.70;99.90;;;;;;5010056;28;20432;-79
2022/12/04 00:13:43;;;;;;;2.50;1.43;;;1.80;99.90;;;;;;5007350;28;20528;-80
2022/12/04 00:16:13;;;;;;;3.17;1.55;;;1.80;99.90;;;;;;5013162;28;20523;-79
2022/12/04 00:18:40;;;;;;;3.83;2.13;;;1.70;99.90;;;;;;4996528;28;20429;-80
2022/12/04 00:21:09;;;;;;;3.13;1.95;;;1.80;99.90;;;;;;4999451;28;20438;-79
2022/12/04 00:23:37;;;;;;;5.25;1.95;;;1.70;99.90;;;;;;5009520;28;20443;-79
2022/12/04 00:26:17;;;;;;;2.42;1.33;;;1.70;99.90;;;;;;5009657;28;20440;-79
2022/12/04 00:28:47;;;;;;;2.25;1.58;;;1.70;99.90;;;;;;5002968;28;20468;-80
2022/12/04 00:31:17;;;;;;;3.85;1.67;;;1.70;99.90;;;;;;5010946;28;20440;-79
2022/12/04 00:33:45;;;;;;;1.67;1.30;;;1.70;99.90;;;;;;5015187;28;20440;-79
2022/12/04 00:36:14;;;;;;;6.35;1.85;;;1.70;99.90;;;;;;5010898;28;20438;-79
2022/12/04 00:38:42;;;;;;;3.00;1.38;;;1.70;99.90;;;;;;4996110;28;20434;-79
2022/12/04 00:41:11;;;;;;;2.50;1.90;;;1.70;99.90;;;;;;4997226;28;20447;-79
2022/12/04 00:43:38;;;;;;;2.60;2.08;;;1.70;99.90;;;;;;5003438;28;20645;-79
2022/12/04 00:46:05;;;;;;;2.40;2.20;;;1.70;99.90;;;;;;5002896;28;20441;-79
2022/12/04 00:48:35;;;;;;;1.55;1.45;;;1.70;99.90;;;;;;4995633;28;20528;-79
2022/12/04 00:51:04;;;;;;;2.45;1.73;;;1.70;99.90;;;;;;5005714;28;20428;-78
2022/12/04 00:53:31;;;;;;;4.82;1.88;;;1.70;99.90;;;;;;5001096;28;20515;-78
2022/12/04 00:56:01;;;;;;;1.75;1.60;;;1.70;99.90;;;;;;5001766;28;20482;-78
2022/12/04 00:58:28;;;;;;;2.40;1.88;;;1.70;99.90;;;;;;5008389;28;20433;-78
2022/12/04 01:01:06;;;;;;;3.10;1.90;;;1.70;99.90;;;;;;5006305;28;20436;-78
2022/12/04 01:03:34;;;;;;;2.42;1.88;;;1.80;99.90;;;;;;5000703;28;20442;-79
2022/12/04 01:06:01;;;;;;;2.53;1.67;;;1.70;99.90;;;;;;5010988;28;20433;-78
2022/12/04 01:08:28;;;;;;;2.53;1.05;;;1.70;99.90;;;;;;5005221;28;20438;-79
2022/12/04 01:10:55;;;;;;;3.25;1.65;;;1.70;99.90;;;;;;5003952;28;21079;-78
2022/12/04 01:13:24;;;;;;;2.13;1.25;;;1.70;99.90;;;;;;5011105;28;20438;-78
2022/12/04 01:15:54;;;;;;;3.17;1.45;;;1.70;99.90;;;;;;5009671;28;20438;-78
2022/12/04 01:18:21;;;;;;;1.95;1.52;;;1.70;99.90;;;;;;5001447;28;20437;-78
2022/12/04 01:20:49;;;;;;;1.77;1.58;;;1.70;99.90;;;;;;5004336;28;20970;-79
2022/12/04 01:23:17;;;;;;;2.08;1.35;;;1.70;99.90;;;;;;4994778;28;20438;-78
2022/12/04 01:25:55;;;;;;;1.60;1.50;;;1.70;99.90;;;;;;4995038;28;20434;-78
2022/12/04 01:28:22;;;;;;;2.30;1.90;;;1.70;99.90;;;;;;5000720;28;20438;-78
2022/12/04 01:31:08;;;;;;;2.15;1.23;;;1.70;99.90;;;;;;5004473;28;20428;-78
2022/12/04 01:33:36;;;;;;;1.67;1.45;;;1.70;99.90;;;;;;5008798;28;20613;-79
2022/12/04 01:36:06;;;;;;;2.95;1.35;;;1.70;99.90;;;;;;4995031;28;20504;-78
2022/12/04 01:38:34;;;;;;;4.72;1.63;;;1.70;99.90;;;;;;4998678;28;20864;-79
2022/12/04 01:41:01;;;;;;;1.92;1.75;;;1.70;99.90;;;;;;5011176;28;20440;-78
2022/12/04 01:43:32;;;;;;;1.60;1.50;;;1.70;99.90;;;;;;5006535;28;20482;-78
2022/12/04 01:46:00;;;;;;;2.83;1.33;;;1.70;99.90;;;;;;5005995;28;20442;-79
2022/12/04 01:48:44;;;;;;;2.10;1.48;;;1.70;99.90;;;;;;5011050;28;20516;-78
2022/12/04 01:51:22;;;;;;;2.80;1.67;;;1.70;99.90;;;;;;4995966;28;20496;-78
2022/12/04 01:53:54;;;;;;;1.70;1.42;;;1.70;99.90;;;;;;5012910;28;20436;-78
2022/12/04 01:56:45;;;;;;;1.30;1.20;;;1.70;99.90;;;;;;5008872;28;20439;-79
2022/12/04 01:59:15;;;;;;;2.93;1.27;;;1.70;99.90;;;;;;4995940;28;20434;-78
2022/12/04 02:01:51;;;;;;;1.50;1.17;;;1.60;99.90;;;;;;4998922;28;20441;-79
2022/12/04 02:04:19;;;;;;;3.72;1.42;;;1.70;99.90;;;;;;5007431;28;20442;-78
2022/12/04 02:06:46;;;;;;;2.05;1.67;;;1.70;99.90;;;;;;5008601;28;20429;-79
2022/12/04 02:09:13;;;;;;;2.92;1.42;;;1.70;99.90;;;;;;5008559;28;20434;-78
2022/12/04 02:11:51;;;;;;;2.27;1.53;;;1.70;99.90;;;;;;5008697;28;20437;-78
2022/12/04 02:14:37;;;;;;;1.73;1.30;;;1.70;99.90;;;;;;4998688;28;20473;-79
2022/12/04 02:17:26;;;;;;;2.50;1.03;;;1.70;99.90;;;;;;5006858;28;20445;-78
2022/12/04 02:20:19;;;;;;;1.90;1.55;;;1.70;99.90;;;;;;4999915;28;20464;-78
2022/12/04 02:22:58;;;;;;;4.45;1.77;;;1.70;99.90;;;;;;5001852;28;20430;-78
2022/12/04 02:26:05;;;;;;;2.00;1.20;;;1.70;99.90;;;;;;5008544;28;20432;-79
2022/12/04 02:29:05;;;;;;;1.40;1.38;;;1.70;99.90;;;;;;5005387;28;20496;-78
2022/12/04 02:31:38;;;;;;;2.30;1.47;;;1.70;99.90;;;;;;5014833;28;20915;-78
2022/12/04 02:34:15;;;;;;;0.85;0.85;;;1.70;99.90;;;;;;4999844;28;20434;-78
2022/12/04 02:36:52;;;;;;;1.20;1.10;;;1.70;99.90;;;;;;5001245;28;20471;-78
2022/12/04 02:39:29;;;;;;;1.63;1.53;;;1.70;99.90;;;;;;5005181;28;20436;-78
2022/12/04 02:42:13;;;;;;;1.13;1.02;;;1.70;99.90;;;;;;5010988;28;20444;-79
2022/12/04 02:44:54;;;;;;;3.53;1.70;;;1.70;99.90;;;;;;5007242;28;20430;-78
2022/12/04 02:47:24;;;;;;;1.80;1.27;;;1.70;99.90;;;;;;4996219;28;20438;-79
2022/12/04 02:49:58;;;;;;;0.98;0.90;;;1.70;99.90;;;;;;5002627;28;20433;-78
2022/12/04 02:52:32;;;;;;;1.50;1.40;;;1.70;99.90;;;;;;5009733;28;20451;-78
2022/12/04 02:55:08;;;;;;;2.00;1.52;;;1.70;99.90;;;;;;5003563;28;20441;-78
2022/12/04 02:57:39;;;;;;;1.15;1.15;;;1.70;99.90;;;;;;5012765;28;20471;-78
2022/12/04 03:00:07;;;;;;;1.95;1.85;;;1.70;99.90;;;;;;5006709;28;20432;-78
2022/12/04 03:02:47;;;;;;;2.67;1.92;;;1.70;99.90;;;;;;4992153;28;20434;-78
2022/12/04 03:05:21;;;;;;;1.70;1.60;;;1.70;99.90;;;;;;5007041;28;20430;-78
2022/12/04 03:07:56;;;;;;;4.35;1.27;;;1.70;99.90;;;;;;5010588;28;20432;-78
2022/12/04 03:10:39;;;;;;;2.00;1.60;;;1.70;99.90;;;;;;4997602;28;20434;-78
2022/12/04 03:13:25;;;;;;;1.05;0.93;;;1.70;99.90;;;;;;5001011;28;20474;-79
2022/12/04 03:16:00;;;;;;;1.55;1.45;;;1.70;99.90;;;;;;5007337;28;20433;-78
2022/12/04 03:18:32;;;;;;;1.08;0.98;;;1.70;99.90;;;;;;5004917;28;20444;-78
2022/12/04 03:21:07;;;;;;;1.25;1.15;;;1.70;99.90;;;;;;5003891;28;20437;-79
2022/12/04 03:23:47;;;;;;;1.42;1.33;;;1.70;99.90;;;;;;4997825;28;20434;-79
2022/12/04 03:26:40;;;;;;;1.60;1.40;;;1.70;99.90;;;;;;5005554;28;20487;-78
2022/12/04 03:29:44;;;;;;;1.42;0.88;;;1.70;99.90;;;;;;5000732;28;20430;-78
2022/12/04 03:32:22;;;;;;;3.80;1.90;;;1.70;99.90;;;;;;5005753;28;20472;-79
2022/12/04 03:35:10;;;;;;;1.55;1.27;;;1.70;99.90;;;;;;5004185;28;21001;-79
2022/12/04 03:38:01;;;;;;;3.60;1.65;;;1.80;99.90;;;;;;5002639;28;20435;-78
2022/12/04 03:40:40;;;;;;;1.25;1.15;;;1.80;99.90;;;;;;4997318;28;20432;-79
2022/12/04 03:43:23;;;;;;;2.70;1.92;;;1.80;99.90;;;;;;5011992;28;20436;-78
2022/12/04 03:46:14;;;;;;;1.42;1.25;;;1.80;99.90;;;;;;4993937;28;20434;-78
2022/12/04 03:49:11;;;;;;;2.65;1.70;;;1.80;99.90;;;;;;5001992;28;20433;-79
2022/12/04 03:51:43;;;;;;;2.05;1.67;;;1.80;99.90;;;;;;5003578;28;20508;-78
2022/12/04 03:54:12;;;;;;;1.38;1.17;;;1.80;99.90;;;;;;5003400;28;20616;-78
2022/12/04 03:56:54;;;;;;;1.63;1.52;;;1.70;99.90;;;;;;5006654;28;20437;-78
2022/12/04 03:59:34;;;;;;;1.70;1.60;;;1.80;99.90;;;;;;4994605;28;20449;-78
2022/12/04 04:02:03;;;;;;;2.75;1.98;;;1.70;99.90;;;;;;5012613;28;20434;-78
2022/12/04 04:04:36;;;;;;;1.90;1.80;;;1.70;99.90;;;;;;5008538;28;20436;-78
2022/12/04 04:07:32;;;;;;;1.50;1.50;;;1.70;99.90;;;;;;4994352;28;20433;-78
2022/12/04 04:10:10;;;;;;;1.60;1.50;;;1.70;99.90;;;;;;4999536;28;20546;-78
2022/12/04 04:12:43;;;;;;;1.80;1.55;;;1.70;99.90;;;;;;5011161;28;20515;-78
2022/12/04 04:26:34;;;;;;;1.70;0.90;;;1.70;99.90;;;;;;5001828;28;20524;-78
2022/12/04 04:29:01;;;;;;;1.07;1.00;;;1.80;99.90;;;;;;5007814;28;20430;-78
2022/12/04 04:31:57;;;;;;;1.55;1.45;;;1.80;99.90;;;;;;4997966;28;20946;-78
2022/12/04 04:34:27;;;;;;;1.35;1.25;;;1.80;99.90;;;;;;5002300;28;20448;-79
2022/12/04 04:37:04;;;;;;;2.25;1.23;;;1.80;99.90;;;;;;4999183;28;20441;-79
2022/12/04 04:39:55;;;;;;;1.80;0.98;;;1.80;99.90;;;;;;5001632;28;20442;-79
2022/12/04 04:42:25;;;;;;;2.00;1.30;;;1.80;99.90;;;;;;5004661;28;20496;-78
2022/12/04 04:45:02;;;;;;;1.85;1.42;;;1.80;99.90;;;;;;5001742;28;20923;-78
2022/12/04 04:47:47;;;;;;;2.20;1.23;;;1.80;99.90;;;;;;5004121;28;20480;-78
2022/12/04 04:50:16;;;;;;;1.67;1.55;;;1.80;99.90;;;;;;4996717;28;20525;-79
2022/12/04 04:52:49;;;;;;;1.42;1.13;;;1.80;99.90;;;;;;4996673;28;20436;-78
2022/12/04 04:55:18;;;;;;;1.30;1.30;;;1.80;99.90;;;;;;5001943;28;20495;-78
2022/12/04 04:57:44;;;;;;;1.92;1.17;;;1.80;99.90;;;;;;5003439;28;20518;-78
2022/12/04 05:00:14;;;;;;;2.50;1.27;;;1.80;99.90;;;;;;5011821;28;20435;-78
2022/12/04 05:02:41;;;;;;;2.38;1.63;;;1.80;99.90;;;;;;5014317;28;20443;-78
2022/12/04 05:05:09;;;;;;;1.10;1.10;;;1.80;99.90;;;;;;5006995;28;20527;-78
2022/12/04 05:07:35;;;;;;;1.50;1.40;;;1.90;99.90;;;;;;5008382;28;20445;-79
2022/12/04 05:10:03;;;;;;;2.88;1.67;;;1.90;99.90;;;;;;5003788;28;20860;-78
2022/12/04 05:12:30;;;;;;;1.15;1.05;;;1.80;99.90;;;;;;5010188;28;20434;-78
2022/12/04 05:14:56;;;;;;;1.87;1.17;;;1.80;99.90;;;;;;4994888;28;20477;-78
2022/12/04 05:17:23;;;;;;;1.85;1.20;;;1.80;99.90;;;;;;4998998;28;20442;-78
2022/12/04 05:19:53;;;;;;;3.00;1.20;;;1.80;99.90;;;;;;5011750;28;20516;-78
2022/12/04 05:22:26;;;;;;;1.45;1.35;;;1.80;99.90;;;;;;5007994;28;20436;-78
2022/12/04 05:24:53;;;;;;;0.70;0.70;;;1.80;99.90;;;;;;5006089;28;20433;-79
2022/12/04 05:27:21;;;;;;;3.95;1.88;;;1.80;99.90;;;;;;5006025;28;20439;-78
2022/12/04 05:29:55;;;;;;;2.70;1.65;;;1.90;99.90;;;;;;4995983;28;20426;-78
2022/12/04 05:32:24;;;;;;;3.50;1.65;;;1.80;99.90;;;;;;5003764;28;20980;-78
2022/12/04 05:34:53;;;;;;;2.25;2.03;;;1.80;99.90;;;;;;5010394;28;20432;-78
2022/12/04 05:37:20;;;;;;;1.65;1.33;;;1.70;99.90;;;;;;5004347;28;20438;-78
2022/12/04 05:39:47;;;;;;;2.25;1.55;;;1.70;99.90;;;;;;5005044;28;20460;-78
2022/12/04 05:42:14;;;;;;;1.38;1.27;;;1.70;99.90;;;;;;5013403;28;20524;-78
2022/12/04 05:44:41;;;;;;;2.10;1.70;;;1.60;99.90;;;;;;5008121;28;20430;-78
2022/12/04 05:47:08;;;;;;;3.17;2.00;;;1.60;99.90;;;;;;5009202;28;20478;-78
2022/12/04 05:49:35;;;;;;;3.38;1.33;;;1.60;99.90;;;;;;5002529;28;20460;-79
2022/12/04 05:52:03;;;;;;;1.40;1.20;;;1.60;99.90;;;;;;5006609;28;20440;-78
2022/12/04 05:54:29;;;;;;;1.65;1.25;;;1.60;99.90;;;;;;5012639;28;20436;-78
2022/12/04 05:56:56;;;;;;;2.53;1.60;;;1.50;99.90;;;;;;5006851;28;21045;-78
2022/12/04 05:59:29;;;;;;;2.10;2.00;;;1.60;99.90;;;;;;5012332;28;20992;-78
2022/12/04 06:01:56;;;;;;;1.77;1.67;;;1.50;99.90;;;;;;4998201;28;20552;-78
2022/12/04 06:04:23;;;;;;;2.23;1.63;;;1.50;99.90;;;;;;5005560;28;20528;-78
2022/12/04 06:06:50;;;;;;;2.80;1.50;;;1.60;99.90;;;;;;5009259;28;20459;-78
2022/12/04 06:09:16;;;;;;;1.35;1.25;;;1.60;99.90;;;;;;5011557;28;20466;-78
2022/12/04 06:11:43;;;;;;;2.97;1.48;;;1.50;99.90;;;;;;5003765;28;20457;-78
2022/12/04 06:14:13;;;;;;;2.25;1.70;;;1.50;99.90;;;;;;5006447;28;20562;-77
2022/12/04 06:16:43;;;;;;;3.75;2.03;;;1.50;99.90;;;;;;5010896;28;20864;-77
2022/12/04 06:19:17;;;;;;;1.60;1.50;;;1.50;99.90;;;;;;5008745;28;20436;-78
2022/12/04 06:21:47;;;;;;;3.60;1.83;;;1.50;99.90;;;;;;5005957;28;20446;-77
2022/12/04 06:24:19;;;;;;;4.07;2.80;;;1.50;99.90;;;;;;5002273;28;20445;-77
2022/12/04 06:26:57;;;;;;;2.05;1.38;;;1.50;99.90;;;;;;5005540;28;20443;-77
2022/12/04 06:29:47;;;;;;;2.97;1.47;;;1.50;99.90;;;;;;5009633;28;20437;-78
2022/12/04 06:32:14;;;;;;;2.07;1.60;;;1.50;99.90;;;;;;5009340;28;20445;-77
2022/12/04 06:34:52;;;;;;;3.10;1.77;;;1.40;99.90;;;;;;4998011;28;21347;-77
2022/12/04 06:37:20;;;;;;;1.98;1.38;;;1.40;99.90;;;;;;5004663;28;20429;-78
2022/12/04 06:39:47;;;;;;;3.88;2.20;;;1.40;99.90;;;;;;5008535;28;20503;-77
2022/12/04 06:42:16;;;;;;;2.70;1.73;;;1.40;99.90;;;;;;5008737;28;20862;-78
2022/12/04 06:44:48;;;;;;;2.27;2.07;;;1.40;99.90;;;;;;5005752;28;20527;-78
2022/12/04 06:47:15;;;;;;;2.63;1.45;;;1.40;99.90;;;;;;5004909;28;20738;-78
2022/12/04 06:49:41;;;;;;;4.93;2.13;;;1.40;99.90;;;;;;4994937;28;20451;-78
2022/12/04 06:52:11;;;;;;;2.95;1.92;;;1.40;99.90;;;;;;5001457;28;20508;-78
2022/12/04 06:54:38;;;;;;;1.57;1.47;;;1.40;99.90;;;;;;5003203;28;20434;-77
2022/12/04 06:57:04;;;;;;;3.85;2.13;;;1.30;99.90;;;;;;4997562;28;20931;-78
2022/12/04 06:59:32;;;;;;;4.55;1.77;;;1.30;99.90;;;;;;4998686;28;20467;-78
2022/12/04 07:01:59;;;;;;;1.38;1.27;;;1.30;99.90;;;;;;5004052;28;20436;-78
2022/12/04 07:04:29;;;;;;;5.82;1.60;;;1.30;99.90;;;;;;5007941;28;20440;-75
2022/12/04 07:06:56;;;;;;;2.35;1.75;;;1.30;99.90;;;;;;5008141;28;20850;-75
2022/12/04 07:09:26;;;;;;;1.43;1.33;;;1.30;99.90;;;;;;4999554;28;21022;-74
2022/12/04 07:11:53;;;;;;;2.90;1.77;;;1.30;99.90;;;;;;5004102;28;20440;-75
2022/12/04 07:14:23;;;;;;;1.48;1.30;;;1.30;99.90;;;;;;5005901;28;20473;-75
2022/12/04 07:16:50;;;;;;;3.67;1.48;;;1.30;99.90;;;;;;4998799;28;20441;-75
2022/12/04 07:19:20;;;;;;;3.10;1.63;;;1.30;99.90;;;;;;5007963;28;21013;-74
2022/12/04 07:21:47;;;;;;;7.47;2.33;;;1.30;99.90;;;;;;4996062;28;20445;-74
2022/12/04 07:24:15;;;;;;;1.90;1.45;;;1.30;99.90;;;;;;5002862;28;20448;-74
2022/12/04 07:26:42;;;;;;;1.83;1.13;;;1.40;99.90;;;;;;5004391;28;20430;-74
2022/12/04 07:29:09;;;;;;;2.45;1.38;;;1.40;99.90;;;;;;5003078;28;20436;-74
2022/12/04 07:31:38;;;;;;;2.00;1.40;;;1.40;99.90;;;;;;5004591;28;20428;-74
2022/12/04 07:34:05;;;;;;;1.85;1.48;;;1.40;99.90;;;;;;4990598;28;20432;-74
2022/12/04 07:36:32;;;;;;;2.20;1.50;;;1.40;99.90;;;;;;4997280;28;20789;-75
2022/12/04 07:39:01;;;;;;;1.85;1.27;;;1.30;99.90;;;;;;4999527;28;20464;-75
2022/12/04 07:41:28;;;;;;;4.40;2.38;;;1.40;99.90;;;;;;4994475;28;20982;-74
2022/12/04 07:43:56;;;;;;;3.08;2.75;;;1.40;99.90;;;;;;5004690;28;20463;-75
2022/12/04 07:46:24;;;;;;;2.13;1.38;;;1.40;99.90;;;;;;5005036;28;21172;-75
2022/12/04 07:48:57;;;;;;;2.78;1.95;;;1.40;99.90;;;;;;5005693;28;20512;-75
2022/12/04 07:51:28;;;;;;;1.52;1.42;;;1.40;99.90;;;;;;4998996;28;20436;-75
2022/12/04 07:53:58;;;;;;;2.50;1.67;;;1.40;99.90;;;;;;4993321;28;20426;-75
2022/12/04 07:56:30;;;;;;;3.67;1.77;;;1.40;99.90;;;;;;4998368;28;20440;-75
2022/12/04 07:58:58;;;;;;;3.70;2.13;;;1.40;99.90;;;;;;5000868;28;20440;-75
2022/12/04 08:01:24;;;;;;;2.67;2.23;;;1.50;99.90;;;;;;4999598;28;20442;-75
2022/12/04 08:03:55;;;;;;;2.10;1.97;;;1.50;99.90;;;;;;5002858;28;20467;-75
2022/12/04 08:06:23;;;;;;;1.38;1.27;;;1.50;99.90;;;;;;4999830;28;20437;-75
2022/12/04 08:08:52;;;;;;;5.63;1.90;;;1.50;99.90;;;;;;4996328;28;20463;-75
2022/12/04 08:11:22;;;;;;;3.45;1.70;;;1.50;99.90;;;;;;5003365;28;20432;-75
2022/12/04 08:13:57;;;;;;;3.13;1.63;;;1.50;99.90;;;;;;4999670;28;20811;-75
2022/12/04 08:16:28;;;;;;;2.78;2.15;;;1.50;99.90;;;;;;4999514;28;20428;-75
2022/12/04 08:18:57;;;;;;;2.90;2.00;;;1.50;99.90;;;;;;4997374;28;20436;-75
2022/12/04 08:21:26;;;;;;;3.40;1.08;;;1.50;99.90;;;;;;5005569;28;20451;-75
2022/12/04 08:23:54;;;;;;;2.90;1.98;;;1.50;99.90;;;;;;5002648;28;20435;-75
2022/12/04 08:26:24;;;;;;;1.50;1.23;;;1.60;99.90;;;;;;4997949;28;20445;-76
2022/12/04 08:28:55;;;;;;;1.33;1.13;;;1.60;99.90;;;;;;4998103;28;20433;-74
2022/12/04 08:31:26;;;;;;;3.10;1.58;;;1.60;99.90;;;;;;4997897;28;20433;-75
2022/12/04 08:33:55;;;;;;;3.70;1.55;;;1.60;99.90;;;;;;5003336;28;21191;-75
2022/12/04 08:36:23;;;;;;;5.22;1.63;;;1.60;99.90;;;;;;5007363;28;20442;-75
2022/12/04 08:38:51;;;;;;;1.63;1.38;;;1.60;99.90;;;;;;5002406;28;20428;-75
2022/12/04 08:41:21;;;;;;;2.50;1.55;;;1.60;99.90;;;;;;5002049;28;20488;-75
2022/12/04 08:43:50;;;;;;;2.05;1.80;;;1.50;99.90;;;;;;5004723;28;20559;-75
2022/12/04 08:46:17;;;;;;;6.22;2.53;;;1.50;99.90;;;;;;5008153;28;20428;-75
2022/12/04 08:48:45;;;;;;;3.27;2.03;;;1.50;99.90;;;;;;5008839;28;20432;-75
2022/12/04 08:51:14;;;;;;;2.53;1.33;;;1.50;99.90;;;;;;4998790;28;20461;-75
2022/12/04 08:53:41;;;;;;;1.77;1.63;;;1.40;99.90;;;;;;5006825;28;20467;-74
2022/12/04 08:56:08;;;;;;;4.28;1.52;;;1.40;99.90;;;;;;5010431;28;20443;-75
2022/12/04 08:58:35;;;;;;;2.40;1.98;;;1.40;99.90;;;;;;5002958;28;20705;-75
2022/12/04 09:01:13;;;;;;;2.65;1.95;;;1.50;99.90;;;;;;5009415;28;20437;-75
2022/12/04 09:03:40;;;;;;;4.15;2.20;;;1.50;99.90;;;;;;5007460;28;20436;-75
2022/12/04 09:06:10;;;;;;;2.38;1.75;;;1.50;99.90;;;;;;5007811;28;20433;-75
2022/12/04 09:08:37;;;;;;;2.20;1.73;;;1.60;99.90;;;;;;5012494;28;20439;-75
2022/12/04 09:11:11;;;;;;;1.92;1.55;;;1.60;99.90;;;;;;5003744;28;20523;-75
2022/12/04 09:13:38;;;;;;;2.95;1.25;;;1.60;99.90;;;;;;5007160;28;20435;-74
2022/12/04 09:16:08;;;;;;;2.80;2.28;;;1.70;99.90;;;;;;5006490;28;20755;-74
2022/12/04 09:18:36;;;;;;;3.63;2.42;;;1.70;99.90;;;;;;5003799;28;20438;-74
2022/12/04 09:21:05;;;;;;;1.67;1.52;;;1.70;99.90;;;;;;4999469;28;20446;-75
2022/12/04 09:23:34;;;;;;;1.80;1.70;;;1.70;99.90;;;;;;5011784;28;20559;-75
2022/12/04 09:26:02;;;;;;;1.92;1.83;;;1.70;99.90;;;;;;5011522;28;21139;-75
2022/12/04 09:28:28;;;;;;;3.70;2.20;;;1.80;99.90;;;;;;5012000;28;20498;-75
2022/12/04 09:31:03;;;;;;;3.20;1.90;;;1.80;99.90;;;;;;5008052;28;20436;-75
2022/12/04 09:33:32;;;;;;;4.85;1.63;;;1.80;99.90;;;;;;5011033;28;20429;-75
2022/12/04 09:36:03;;;;;;;2.47;1.85;;;1.80;99.90;;;;;;5004328;28;20813;-75
2022/12/04 09:38:34;;;;;;;2.03;1.90;;;1.90;99.90;;;;;;5016335;28;20435;-75
2022/12/04 09:41:35;;;;;;;1.92;1.83;;;2.00;99.90;;;;;;5012595;28;20460;-75
2022/12/04 09:44:25;;;;;;;1.77;1.67;;;2.00;99.90;;;;;;5010335;28;20486;-75
2022/12/04 09:47:00;;;;;;;2.80;1.47;;;2.00;99.90;;;;;;4996576;28;20912;-75
2022/12/04 09:49:59;;;;;;;1.48;1.38;;;2.10;99.90;;;;;;5004368;28;20464;-76
2022/12/04 09:52:47;;;;;;;2.30;1.73;;;2.20;99.90;;;;;;5028769;28;20427;-75
2022/12/04 09:55:41;;;;;;;2.78;1.88;;;2.30;99.90;;;;;;5036314;28;20437;-76
2022/12/04 09:58:19;;;;;;;6.13;2.30;;;2.30;99.90;;;;;;5025345;28;21852;-75
2022/12/04 10:00:50;;;;;;;1.90;1.63;;;2.30;99.90;;;;;;5029059;28;21173;-75
2022/12/04 10:03:20;;;;;;;4.32;1.83;;;2.30;99.90;;;;;;5028595;28;20636;-75
2022/12/04 10:06:13;;;;;;;2.27;1.67;;;2.30;99.90;;;;;;5027371;28;20465;-76
2022/12/04 10:08:42;;;;;;;3.67;2.22;;;2.40;99.90;;;;;;5027897;28;20438;-75
2022/12/04 10:11:27;;;;;;;4.70;3.10;;;2.40;99.90;;;;;;5027123;28;20430;-75
2022/12/04 10:14:04;;;;;;;1.85;1.63;;;2.30;99.90;;;;;;5027581;28;20484;-76
2022/12/04 10:16:54;;;;;;;2.53;2.33;;;2.30;99.90;;;;;;5028826;28;20517;-75
2022/12/04 10:19:25;;;;;;;2.08;1.27;;;2.40;99.90;;;;;;5027797;28;20442;-75
2022/12/04 10:22:24;;;;;;;4.13;2.83;;;2.40;99.90;;;;;;5027672;28;20425;-76
2022/12/04 10:25:29;;;;;;;3.60;2.45;;;2.50;99.90;;;;;;5024315;28;20438;-76
2022/12/04 10:28:13;;;;;;;3.85;2.85;;;2.50;99.90;;;;;;5028347;28;20975;-75
2022/12/04 10:30:41;;;;;;;3.83;2.15;;;2.50;99.90;;;;;;5009952;28;20432;-75
2022/12/04 10:33:16;;;;;;;3.60;1.83;;;2.60;99.90;;;;;;5008637;28;20436;-75
2022/12/04 10:35:47;;;;;;;3.43;1.60;;;2.50;99.90;;;;;;5009222;28;20471;-75
2022/12/04 10:38:44;;;;;;;2.40;1.95;;;2.60;99.90;;;;;;5006942;28;20440;-75
2022/12/04 10:42:03;;;;;;;4.67;2.53;;;2.50;99.90;;;;;;5003400;28;20436;-75
2022/12/04 10:44:32;;;;;;;4.57;2.38;;;2.50;99.90;;;;;;4991823;28;20465;-75
2022/12/04 10:47:01;;;;;;;2.30;2.10;;;2.50;99.90;;;;;;4996228;28;20437;-75
2022/12/04 10:49:32;;;;;;;4.15;2.30;;;2.60;99.90;;;;;;5008113;28;20919;-75
2022/12/04 10:51:59;;;;;;;3.60;2.25;;;2.50;99.90;;;;;;5015518;28;20439;-75
2022/12/04 10:54:38;;;;;;;4.50;2.35;;;2.60;99.90;;;;;;5004522;28;20430;-75
2022/12/04 10:57:10;;;;;;;3.58;2.40;;;2.60;99.90;;;;;;4999289;28;20436;-75
2022/12/04 10:59:55;;;;;;;5.00;2.03;;;2.80;99.90;;;;;;5015363;28;20433;-75
2022/12/04 11:02:32;;;;;;;2.90;1.98;;;2.80;99.90;;;;;;5005222;28;20428;-76
2022/12/04 11:05:21;;;;;;;4.03;2.83;;;2.90;99.90;;;;;;4992426;28;20442;-75
2022/12/04 11:07:50;;;;;;;3.28;2.38;;;3.00;99.90;;;;;;5003162;28;20962;-77
2022/12/04 11:10:28;;;;;;;4.40;2.22;;;3.00;99.90;;;;;;4999187;28;20435;-76
2022/12/04 11:13:04;;;;;;;4.68;2.15;;;3.10;99.90;;;;;;4996949;28;20428;-74
2022/12/04 11:15:34;;;;;;;4.68;3.28;;;3.10;99.90;;;;;;5000105;28;20430;-74
2022/12/04 11:18:14;;;;;;;6.47;2.73;;;3.10;99.90;;;;;;4991998;28;20432;-77
2022/12/04 11:20:56;;;;;;;4.57;2.53;;;3.10;99.90;;;;;;5007648;28;20438;-77
2022/12/04 11:23:24;;;;;;;8.25;3.08;;;3.10;99.90;;;;;;5002811;28;20437;-74
2022/12/04 11:25:54;;;;;;;7.07;2.37;;;3.20;99.90;;;;;;5009162;28;20434;-77
2022/12/04 11:28:31;;;;;;;3.65;2.10;;;3.40;99.90;;;;;;5000035;28;20437;-76
2022/12/04 11:31:19;;;;;;;3.58;2.22;;;3.30;99.90;;;;;;5007472;28;20436;-77
2022/12/04 11:33:52;;;;;;;2.80;1.88;;;3.20;99.90;;;;;;4994192;28;20449;-77
2022/12/04 11:36:42;;;;;;;3.78;2.28;;;3.10;99.90;;;;;;5001305;28;20442;-77
2022/12/04 11:39:12;;;;;;;3.67;2.78;;;3.10;99.90;;;;;;5002727;28;20440;-76
2022/12/04 11:41:38;;;;;;;3.13;2.90;;;3.10;99.90;;;;;;5005992;28;20434;-75
2022/12/04 11:44:06;;;;;;;3.33;2.70;;;3.00;99.90;;;;;;5007004;28;20439;-74
2022/12/04 11:46:33;;;;;;;5.30;3.15;;;2.90;99.90;;;;;;5000153;28;21021;-75
2022/12/04 11:49:02;;;;;;;3.53;2.30;;;2.90;99.90;;;;;;5005975;28;20527;-75
2022/12/04 11:51:40;;;;;;;5.75;2.53;;;3.00;99.90;;;;;;5001834;28;20438;-74
2022/12/04 11:54:22;;;;;;;4.35;2.15;;;3.00;99.90;;;;;;5004603;28;21080;-75
2022/12/04 11:57:21;;;;;;;4.25;2.20;;;3.00;99.90;;;;;;4992304;28;20449;-75
2022/12/04 12:00:11;;;;;;;2.65;1.75;;;3.00;99.90;;;;;;4995117;28;20446;-75
2022/12/04 12:03:14;;;;;;;4.60;1.92;;;2.90;99.90;;;;;;5001998;28;20433;-73
2022/12/04 12:06:04;;;;;;;7.47;2.70;;;2.90;99.90;;;;;;5005943;28;20440;-75
2022/12/04 12:09:07;;;;;;;2.72;1.50;;;2.90;99.90;;;;;;5004075;28;20424;-75
2022/12/04 12:11:54;;;;;;;2.40;1.67;;;2.90;99.90;;;;;;5000569;28;20512;-75
2022/12/04 12:15:01;;;;;;;5.07;2.60;;;2.90;99.90;;;;;;5007805;28;20491;-75
2022/12/04 12:17:52;;;;;;;3.33;3.03;;;2.90;99.90;;;;;;5004020;28;20524;-75
2022/12/04 12:20:46;;;;;;;3.38;2.13;;;2.90;99.90;;;;;;4997508;28;20442;-75
2022/12/04 12:23:42;;;;;;;5.00;1.92;;;2.90;99.90;;;;;;5027601;28;20945;-75
2022/12/04 12:26:12;;;;;;;3.65;2.28;;;2.90;99.90;;;;;;5005281;28;20436;-75
2022/12/04 12:29:19;;;;;;;4.68;2.33;;;2.90;99.90;;;;;;5008701;28;20511;-75
2022/12/04 12:32:34;;;;;;;3.08;2.28;;;2.90;99.90;;;;;;5009079;28;20425;-75
2022/12/04 12:35:03;;;;;;;5.90;3.00;;;3.00;99.90;;;;;;5001091;28;20442;-75
2022/12/04 12:37:46;;;;;;;3.42;2.38;;;3.00;99.90;;;;;;5001984;28;20486;-75
2022/12/04 12:40:33;;;;;;;3.13;1.98;;;3.00;99.90;;;;;;4990515;28;20441;-75
2022/12/04 12:43:09;;;;;;;2.17;1.95;;;3.00;99.90;;;;;;4998389;28;20490;-74
2022/12/04 12:45:48;;;;;;;7.72;2.05;;;3.00;99.90;;;;;;5003092;28;20911;-75
2022/12/04 12:48:45;;;;;;;2.35;1.95;;;3.00;99.90;;;;;;5002007;28;20801;-75
2022/12/04 12:51:37;;;;;;;2.72;1.95;;;3.10;99.90;;;;;;4992809;28;21001;-75
2022/12/04 12:54:25;;;;;;;5.85;3.03;;;3.10;99.90;;;;;;5007994;28;20586;-75
2022/12/04 12:57:01;;;;;;;2.42;2.22;;;3.00;99.90;;;;;;4998217;28;21679;-76
2022/12/04 12:59:28;;;;;;;3.47;2.60;;;3.00;99.90;;;;;;4994413;28;20436;-75
2022/12/04 13:02:16;;;;;;;5.25;2.20;;;3.00;99.90;;;;;;5001801;28;20871;-75
2022/12/04 13:04:51;;;;;;;4.10;2.60;;;3.00;99.90;;;;;;4999539;28;20448;-76
2022/12/04 13:07:20;;;;;;;10.33;2.67;;;2.90;99.90;;;;;;5000675;28;20439;-76
2022/12/04 13:10:12;;;;;;;3.20;2.38;;;2.90;99.90;;;;;;5000479;28;20433;-75
2022/12/04 13:12:56;;;;;;;4.30;2.60;;;2.90;99.90;;;;;;5002096;28;20442;-76
2022/12/04 13:15:32;;;;;;;3.55;2.13;;;2.90;99.90;;;;;;4995439;28;20446;-75
2022/12/04 13:18:03;;;;;;;4.33;2.47;;;2.80;99.90;;;;;;4997235;28;20897;-76
2022/12/04 13:20:37;;;;;;;6.53;3.17;;;2.80;99.90;;;;;;5007967;28;20440;-76
2022/12/04 13:23:32;;;;;;;7.80;3.70;;;2.70;99.90;;;;;;5012851;28;20959;-76
2022/12/04 13:26:08;;;;;;;3.15;2.13;;;2.70;99.90;;;;;;5006525;28;20436;-75
2022/12/04 13:28:52;;;;;;;4.88;2.45;;;2.70;99.90;;;;;;5008179;28;20437;-76
2022/12/04 13:31:36;;;;;;;3.15;2.17;;;2.80;99.90;;;;;;4999873;28;20428;-76
2022/12/04 13:34:03;;;;;;;3.47;1.95;;;2.80;99.90;;;;;;5007559;28;20440;-75
2022/12/04 13:36:48;;;;;;;4.95;2.30;;;2.80;99.90;;;;;;5010414;28;20436;-76
2022/12/04 13:39:43;;;;;;;2.20;2.03;;;2.80;99.90;;;;;;5005250;28;21080;-75
2022/12/04 13:42:27;;;;;;;4.43;2.08;;;2.80;99.90;;;;;;5009528;28;20438;-75
2022/12/04 13:45:02;;;;;;;5.77;1.67;;;2.80;99.90;;;;;;5017566;28;20934;-75
2022/12/04 13:47:34;;;;;;;2.30;2.10;;;2.80;99.90;;;;;;5009241;28;20429;-76
2022/12/04 13:50:17;;;;;;;2.63;1.88;;;2.80;99.90;;;;;;5000608;28;20434;-75